createdAt,value
2023-03-20T00:47:48.541Z,3.88
2023-03-20T00:50:18.508Z,4.95
2023-03-20T00:52:46.064Z,4.45
2023-03-20T00:55:13.569Z,4.43
2023-03-20T00:57:45.546Z,4.28
2023-03-20T01:00:27.432Z,3.90
2023-03-20T01:02:58.945Z,3.53
2023-03-20T01:05:29.007Z,3.35
2023-03-20T01:07:57.004Z,3.80
2023-03-20T01:10:33.983Z,3.97
2023-03-20T01:13:02.752Z,4.20
2023-03-20T01:15:33.838Z,3.90
2023-03-20T01:18:02.969Z,4.57
2023-03-20T01:20:31.688Z,5.80
2023-03-20T01:22:59.226Z,5.50
2023-03-20T01:25:27.241Z,5.00
2023-03-20T01:27:57.958Z,5.68
2023-03-20T01:30:28.695Z,4.78
2023-03-20T01:32:57.187Z,5.53
2023-03-20T01:35:28.963Z,5.32
2023-03-20T01:37:57.557Z,5.83
2023-03-20T01:40:34.030Z,5.78
2023-03-20T01:43:03.258Z,5.68
2023-03-20T01:45:36.677Z,6.40
2023-03-20T01:48:15.876Z,5.78
2023-03-20T01:50:44.771Z,5.80
2023-03-20T01:53:16.831Z,5.72
2023-03-20T01:55:47.408Z,5.53
2023-03-20T01:58:20.684Z,5.82
2023-03-20T02:00:49.886Z,6.35
2023-03-20T02:03:18.928Z,5.47
2023-03-20T02:05:48.753Z,6.45
2023-03-20T02:08:26.645Z,7.00
2023-03-20T02:10:55.688Z,6.75
2023-03-20T02:13:25.408Z,6.85
2023-03-20T02:16:03.724Z,7.28
2023-03-20T02:18:32.264Z,6.40
2023-03-20T02:21:49.966Z,6.13
2023-03-20T02:25:02.213Z,6.20
2023-03-20T02:27:35.863Z,6.28
2023-03-20T02:30:39.047Z,6.25
2023-03-20T02:33:46.486Z,5.20
2023-03-20T02:36:49.454Z,5.63
2023-03-20T02:39:43.544Z,5.30
2023-03-20T02:42:19.735Z,6.20
2023-03-20T02:44:54.550Z,5.90
2023-03-20T02:47:27.557Z,5.45
2023-03-20T02:50:03.150Z,5.50
2023-03-20T02:52:40.571Z,5.50
2023-03-20T02:55:17.808Z,5.57
2023-03-20T02:57:53.021Z,5.07
2023-03-20T03:00:28.871Z,5.20
2023-03-20T03:03:06.475Z,4.80
2023-03-20T03:05:39.529Z,5.70
2023-03-20T03:08:10.776Z,4.90
2023-03-20T03:10:42.863Z,4.43
2023-03-20T03:13:16.197Z,4.80
2023-03-20T03:15:47.855Z,5.22
2023-03-20T03:18:20.336Z,4.73
2023-03-20T03:20:51.172Z,5.07
2023-03-20T03:23:24.331Z,4.93
2023-03-20T03:25:56.303Z,4.43
2023-03-20T03:28:30.225Z,5.00
2023-03-20T03:30:59.613Z,4.38
2023-03-20T03:33:31.190Z,4.90
2023-03-20T03:36:06.453Z,4.45
2023-03-20T03:38:44.540Z,3.50
2023-03-20T03:41:22.606Z,3.70
2023-03-20T03:43:56.825Z,4.28
2023-03-20T03:46:30.667Z,4.40
2023-03-20T03:48:59.632Z,3.90
2023-03-20T03:51:30.858Z,3.60
2023-03-20T03:54:03.247Z,4.07
2023-03-20T03:56:35.374Z,3.90
2023-03-20T03:59:07.616Z,3.67
2023-03-20T04:01:37.324Z,3.80
2023-03-20T04:04:09.550Z,4.72
2023-03-20T04:06:37.158Z,3.55
2023-03-20T04:09:04.903Z,3.85
2023-03-20T04:11:35.669Z,4.55
2023-03-20T04:14:03.163Z,4.15
2023-03-20T04:16:30.954Z,3.95
2023-03-20T04:18:58.868Z,4.25
2023-03-20T04:21:26.493Z,4.60
2023-03-20T04:23:54.057Z,4.57
2023-03-20T04:26:22.170Z,5.05
2023-03-20T04:28:51.043Z,5.63
2023-03-20T04:31:19.222Z,5.28
2023-03-20T04:33:47.400Z,5.25
2023-03-20T04:36:15.545Z,5.97
2023-03-20T04:38:43.083Z,5.32
2023-03-20T04:41:10.656Z,5.30
2023-03-20T04:43:38.146Z,5.38
2023-03-20T04:46:07.526Z,5.47
2023-03-20T04:48:35.456Z,6.72
2023-03-20T04:51:02.953Z,6.70
2023-03-20T04:53:30.463Z,6.85
2023-03-20T04:55:59.495Z,6.68
2023-03-20T04:58:28.901Z,6.72
2023-03-20T05:00:56.429Z,5.70
2023-03-20T05:03:25.386Z,5.53
2023-03-20T05:05:52.898Z,5.75
2023-03-20T05:08:20.591Z,4.80
2023-03-20T05:10:48.069Z,4.20
2023-03-20T05:13:15.676Z,3.70
2023-03-20T05:15:44.028Z,3.45
2023-03-20T05:18:11.780Z,2.90
2023-03-20T05:20:40.977Z,2.90
2023-03-20T05:23:08.495Z,3.17
2023-03-20T05:25:36.429Z,2.78
2023-03-20T05:28:04.264Z,2.53
2023-03-20T05:30:31.755Z,2.03
2023-03-20T05:32:59.265Z,2.78
2023-03-20T05:35:26.968Z,2.42
2023-03-20T05:37:55.809Z,2.40
2023-03-20T05:40:25.405Z,2.00
2023-03-20T05:42:53.524Z,2.55
2023-03-20T05:45:21.388Z,2.22
2023-03-20T05:47:48.996Z,1.90
2023-03-20T05:50:17.024Z,2.28
2023-03-20T05:52:47.236Z,1.92
2023-03-20T05:55:16.665Z,4.45
2023-03-20T05:57:44.218Z,9.52
2023-03-20T06:00:12.711Z,5.82
2023-03-20T06:02:40.246Z,2.58
2023-03-20T06:05:08.141Z,1.90
2023-03-20T06:07:35.686Z,2.30
2023-03-20T06:10:03.200Z,1.77
2023-03-20T06:12:32.045Z,1.88
2023-03-20T06:14:59.612Z,1.50
2023-03-20T06:17:27.163Z,1.60
2023-03-20T06:19:54.702Z,1.80
2023-03-20T06:22:22.273Z,1.75
2023-03-20T06:24:49.902Z,1.48
2023-03-20T06:27:17.489Z,1.52
2023-03-20T06:29:46.294Z,1.60
2023-03-20T06:32:14.715Z,1.45
2023-03-20T06:34:42.319Z,1.70
2023-03-20T06:37:09.966Z,1.55
2023-03-20T06:39:37.810Z,1.60
2023-03-20T06:42:05.357Z,1.55
2023-03-20T06:44:32.904Z,1.48
2023-03-20T06:47:02.575Z,2.03
2023-03-20T06:49:30.726Z,1.95
2023-03-20T06:51:59.498Z,2.03
2023-03-20T06:54:27.541Z,1.60
2023-03-20T06:56:56.829Z,1.50
2023-03-20T06:59:24.883Z,1.40
2023-03-20T07:01:52.727Z,2.15
2023-03-20T07:04:22.355Z,1.60
2023-03-20T07:06:50.011Z,1.77
2023-03-20T07:09:22.352Z,1.63
2023-03-20T07:11:50.864Z,1.77
2023-03-20T07:14:18.627Z,1.23
2023-03-20T07:16:46.303Z,1.67
2023-03-20T07:19:14.126Z,1.30
2023-03-20T07:21:43.408Z,1.90
2023-03-20T07:24:10.986Z,1.38
2023-03-20T07:26:41.229Z,1.38
2023-03-20T07:29:08.832Z,1.58
2023-03-20T07:31:36.498Z,1.45
2023-03-20T07:34:04.254Z,1.38
2023-03-20T07:36:31.824Z,1.20
2023-03-20T07:39:00.749Z,1.30
2023-03-20T07:41:28.340Z,1.20
2023-03-20T07:43:56.012Z,0.90
2023-03-20T07:46:23.669Z,1.00
2023-03-20T07:48:51.472Z,0.85
2023-03-20T07:51:19.125Z,0.88
2023-03-20T07:53:46.696Z,1.10
2023-03-20T07:56:15.611Z,1.15
2023-03-20T07:58:43.449Z,1.10
2023-03-20T08:01:11.462Z,1.45
2023-03-20T08:03:40.448Z,1.33
2023-03-20T08:06:09.703Z,1.20
2023-03-20T08:08:38.126Z,1.17
2023-03-20T08:11:05.971Z,3.80
2023-03-20T08:13:34.968Z,2.40
2023-03-20T08:16:02.594Z,1.38
2023-03-20T08:18:32.979Z,1.08
2023-03-20T08:21:00.552Z,1.02
2023-03-20T08:23:28.581Z,1.08
2023-03-20T08:25:56.414Z,0.80
2023-03-20T08:28:36.476Z,0.98
2023-03-20T08:31:14.025Z,1.23
2023-03-20T08:33:41.635Z,0.68
2023-03-20T08:36:10.167Z,0.70
2023-03-20T08:38:39.337Z,0.88
2023-03-20T08:41:07.829Z,0.75
2023-03-20T08:43:36.344Z,0.68
2023-03-20T08:46:04.143Z,0.50
2023-03-20T08:48:33.241Z,0.63
2023-03-20T08:51:01.380Z,0.60
2023-03-20T08:53:29.196Z,0.77
2023-03-20T08:55:57.566Z,0.50
2023-03-20T08:58:25.152Z,0.40
2023-03-20T09:00:52.735Z,0.90
2023-03-20T09:03:22.117Z,0.80
2023-03-20T09:05:52.432Z,0.80
2023-03-20T09:08:20.652Z,0.70
2023-03-20T09:10:52.134Z,1.00
2023-03-20T09:15:57.348Z,0.52
2023-03-20T09:18:26.533Z,0.70
2023-03-20T09:20:56.551Z,0.30
2023-03-20T09:23:24.478Z,0.50
2023-03-20T09:25:52.096Z,0.47
2023-03-20T09:28:19.856Z,0.60
2023-03-20T09:30:47.502Z,0.40
2023-03-20T09:33:16.072Z,0.63
2023-03-20T09:35:44.097Z,0.43
2023-03-20T09:38:14.186Z,0.32
2023-03-20T09:40:52.420Z,1.10
2023-03-20T09:43:29.942Z,0.90
2023-03-20T09:46:06.841Z,0.70
2023-03-20T09:48:41.966Z,0.40
2023-03-20T09:51:19.858Z,0.50
2023-03-20T09:54:03.638Z,0.50
2023-03-20T09:56:32.441Z,0.43
2023-03-20T09:59:02.396Z,0.57
2023-03-20T10:01:39.571Z,0.45
2023-03-20T10:04:10.641Z,0.32
2023-03-20T10:06:38.858Z,0.40
2023-03-20T10:09:16.714Z,0.30
2023-03-20T10:12:01.689Z,0.63
2023-03-20T10:14:40.729Z,0.70
2023-03-20T10:17:22.136Z,0.52
2023-03-20T10:19:55.036Z,0.40
2023-03-20T10:22:25.902Z,0.43
2023-03-20T10:24:59.766Z,0.20
2023-03-20T10:27:34.131Z,0.30
2023-03-20T10:30:19.791Z,0.30
2023-03-20T10:32:55.606Z,0.30
2023-03-20T10:35:41.257Z,0.30
2023-03-20T10:38:25.870Z,0.40
2023-03-20T10:40:58.114Z,0.30
2023-03-20T10:46:01.783Z,0.10
2023-03-20T10:48:37.582Z,0.70
2023-03-20T10:51:06.765Z,0.30
2023-03-20T10:53:38.931Z,0.52
2023-03-20T10:56:15.080Z,0.30
2023-03-20T10:58:48.453Z,0.50
2023-03-20T11:01:16.203Z,0.98
2023-03-20T11:03:44.112Z,0.30
2023-03-20T11:06:20.171Z,0.30
2023-03-20T11:08:52.085Z,0.30
2023-03-20T11:11:26.801Z,0.40
2023-03-20T11:13:56.301Z,0.73
2023-03-20T11:16:26.265Z,0.80
2023-03-20T11:18:55.099Z,0.50
2023-03-20T11:21:26.053Z,1.00
2023-03-20T11:23:54.430Z,0.80
2023-03-20T11:26:41.848Z,0.40
2023-03-20T11:29:21.649Z,0.90
2023-03-20T11:31:49.369Z,1.50
2023-03-20T11:34:26.708Z,1.00
2023-03-20T11:37:09.717Z,0.45
2023-03-20T11:39:40.127Z,0.22
2023-03-20T11:42:23.857Z,0.52
2023-03-20T11:44:58.853Z,0.65
2023-03-20T11:47:28.700Z,0.55
2023-03-20T11:49:58.614Z,0.50
2023-03-20T11:52:28.951Z,0.30
2023-03-20T11:54:59.069Z,0.40
2023-03-20T11:57:33.076Z,0.40
2023-03-20T12:00:04.142Z,0.90
2023-03-20T12:02:32.005Z,1.73
2023-03-20T12:05:01.258Z,1.83
2023-03-20T12:07:32.001Z,2.30
2023-03-20T12:10:03.772Z,1.40
2023-03-20T12:12:42.089Z,1.50
2023-03-20T12:15:18.388Z,2.33
2023-03-20T12:17:51.836Z,1.20
2023-03-20T12:20:30.897Z,1.17
2023-03-20T12:23:07.597Z,2.50
2023-03-20T12:25:39.768Z,2.03
2023-03-20T12:28:16.447Z,0.90
2023-03-20T12:30:55.894Z,0.90
2023-03-20T12:33:36.291Z,0.88
2023-03-20T12:36:06.363Z,0.90
2023-03-20T12:38:34.915Z,0.75
2023-03-20T12:41:12.726Z,0.65
2023-03-20T12:44:00.290Z,1.20
2023-03-20T12:46:36.584Z,0.98
2023-03-20T12:49:13.645Z,1.23
2023-03-20T12:51:52.959Z,0.70
2023-03-20T12:54:34.968Z,0.80
2023-03-20T12:57:11.637Z,0.82
2023-03-20T12:59:52.385Z,0.75
2023-03-20T13:02:32.702Z,0.60
2023-03-20T13:05:10.273Z,0.60
2023-03-20T13:07:53.727Z,1.00
2023-03-20T13:10:23.103Z,0.77
2023-03-20T13:13:01.660Z,0.88
2023-03-20T13:15:39.795Z,0.82
2023-03-20T13:18:18.592Z,1.33
2023-03-20T13:20:51.307Z,1.00
2023-03-20T13:23:24.524Z,0.80
2023-03-20T13:26:14.774Z,1.00
2023-03-20T13:28:53.306Z,1.20
2023-03-20T13:31:59.219Z,1.42
2023-03-20T13:34:36.309Z,1.23
2023-03-20T13:37:22.856Z,0.90
2023-03-20T13:40:02.016Z,0.90
2023-03-20T13:42:34.850Z,0.88
2023-03-20T13:45:07.116Z,0.85
2023-03-20T13:47:37.722Z,0.57
2023-03-20T13:50:19.271Z,0.90
2023-03-20T13:52:53.055Z,0.95
2023-03-20T13:55:28.559Z,1.20
2023-03-20T13:58:11.871Z,1.02
2023-03-20T14:00:47.545Z,1.10
2023-03-20T14:03:28.436Z,1.00
2023-03-20T14:05:56.591Z,0.90
2023-03-20T14:08:36.791Z,0.95
2023-03-20T14:11:32.352Z,0.90
2023-03-20T14:14:05.518Z,0.60
2023-03-20T14:16:33.171Z,1.23
2023-03-20T14:19:12.904Z,0.98
2023-03-20T14:21:41.212Z,0.93
2023-03-20T14:24:15.071Z,0.88
2023-03-20T14:26:43.337Z,0.90
2023-03-20T14:29:34.056Z,0.73
2023-03-20T14:32:24.381Z,0.50
2023-03-20T14:34:54.856Z,0.75
2023-03-20T14:37:37.877Z,1.00
2023-03-20T14:40:16.343Z,0.55
2023-03-20T14:42:55.997Z,0.70
2023-03-20T14:45:38.237Z,0.70
2023-03-20T14:48:12.718Z,0.60
2023-03-20T14:51:03.026Z,1.02
2023-03-20T14:53:32.900Z,1.10
2023-03-20T14:56:08.390Z,1.00
2023-03-20T14:58:50.740Z,1.00
2023-03-20T15:01:26.136Z,1.30
2023-03-20T15:03:57.480Z,1.00
2023-03-20T15:06:28.071Z,1.10
2023-03-20T15:08:59.400Z,1.08
2023-03-20T15:11:27.465Z,1.05
2023-03-20T15:13:56.602Z,1.45
2023-03-20T15:16:29.740Z,1.40
2023-03-20T15:18:58.060Z,1.60
2023-03-20T15:21:34.151Z,1.58
2023-03-20T15:24:02.565Z,1.60
2023-03-20T15:26:32.952Z,1.40
2023-03-20T15:29:03.503Z,1.17
2023-03-20T15:31:33.171Z,1.65
2023-03-20T15:34:02.868Z,1.55
2023-03-20T15:36:36.939Z,1.90
2023-03-20T15:39:08.258Z,2.33
2023-03-20T15:41:39.142Z,1.70
2023-03-20T15:44:19.982Z,1.90
2023-03-20T15:46:56.953Z,1.30
2023-03-20T15:49:25.526Z,1.48
2023-03-20T15:51:58.227Z,1.95
2023-03-20T15:54:26.094Z,1.50
2023-03-20T15:56:57.481Z,1.95
2023-03-20T15:59:29.483Z,1.40
2023-03-20T16:02:00.439Z,2.50
2023-03-20T16:04:29.064Z,2.55
2023-03-20T16:06:59.426Z,1.83
2023-03-20T16:09:28.990Z,2.08
2023-03-20T16:11:59.548Z,1.50
2023-03-20T16:14:30.074Z,1.50
2023-03-20T16:17:00.365Z,1.80
2023-03-20T16:19:29.887Z,2.17
2023-03-20T16:22:02.034Z,2.28
2023-03-20T16:24:31.749Z,2.20
2023-03-20T16:26:59.416Z,2.40
2023-03-20T16:29:29.004Z,2.28
2023-03-20T16:32:00.312Z,2.42
2023-03-20T16:34:33.052Z,1.98
2023-03-20T16:37:07.223Z,2.00
2023-03-20T16:39:34.826Z,2.10
2023-03-20T16:42:21.449Z,1.73
2023-03-20T16:44:54.834Z,1.52
2023-03-20T16:47:24.945Z,1.60
2023-03-20T16:50:10.633Z,1.70
2023-03-20T16:52:42.457Z,2.10
2023-03-20T16:55:17.052Z,1.67
2023-03-20T16:57:48.589Z,2.22
2023-03-20T17:00:25.645Z,1.85
2023-03-20T17:03:00.795Z,1.70
2023-03-20T17:05:43.381Z,2.20
2023-03-20T17:08:15.992Z,2.33
2023-03-20T17:13:17.414Z,2.50
2023-03-20T17:15:45.718Z,2.25
2023-03-20T17:18:14.406Z,2.35
2023-03-20T17:20:42.237Z,2.95
2023-03-20T17:23:16.131Z,2.60
2023-03-20T17:25:44.168Z,2.30
2023-03-20T17:28:19.965Z,3.65
2023-03-20T17:30:48.832Z,6.00
2023-03-20T17:33:18.960Z,6.25
2023-03-20T17:35:47.725Z,8.38
2023-03-20T17:38:22.485Z,5.30
2023-03-20T17:40:51.228Z,6.57
2023-03-20T17:43:19.992Z,3.60
2023-03-20T17:45:48.393Z,2.92
2023-03-20T17:48:18.492Z,3.28
2023-03-20T17:50:46.621Z,2.25
2023-03-20T17:53:17.076Z,2.72
2023-03-20T17:55:46.094Z,3.15
2023-03-20T17:58:18.480Z,3.08
2023-03-20T18:00:46.271Z,3.20
2023-03-20T18:03:15.258Z,3.40
2023-03-20T18:05:43.140Z,3.42
2023-03-20T18:08:14.943Z,3.40
2023-03-20T18:10:43.482Z,3.33
2023-03-20T18:13:12.361Z,3.47
2023-03-20T18:15:40.669Z,3.15
2023-03-20T18:18:09.450Z,4.30
2023-03-20T18:20:40.959Z,35.08
2023-03-20T18:23:09.084Z,7.60
2023-03-20T18:25:37.034Z,4.72
2023-03-20T18:28:07.931Z,4.05
2023-03-20T18:30:39.347Z,3.60
2023-03-20T18:33:07.203Z,4.28
2023-03-20T18:35:35.745Z,3.95
2023-03-20T18:38:04.033Z,4.10
2023-03-20T18:40:33.428Z,3.83
2023-03-20T18:43:01.315Z,4.30
2023-03-20T18:45:30.725Z,3.97
2023-03-20T18:48:03.653Z,11.27
2023-03-20T18:50:37.504Z,20.85
2023-03-20T18:53:11.655Z,9.25
2023-03-20T18:55:47.727Z,7.53
2023-03-20T18:58:25.005Z,7.13
2023-03-20T19:00:55.346Z,13.10
2023-03-20T19:24:01.255Z,6.32
2023-03-20T20:16:56.253Z,3.97
2023-03-20T20:31:29.710Z,3.22
2023-03-20T20:35:14.833Z,3.78
2023-03-20T20:44:41.121Z,13.80
2023-03-20T20:47:21.546Z,6.50
2023-03-20T20:49:51.925Z,5.10
2023-03-20T20:52:21.270Z,5.22
2023-03-20T20:54:50.988Z,4.70
2023-03-20T20:57:20.766Z,4.70
2023-03-20T20:59:59.566Z,4.95
2023-03-20T21:02:29.591Z,4.97
2023-03-20T21:05:00.716Z,4.93
2023-03-20T21:07:36.726Z,4.90
2023-03-20T21:10:06.726Z,4.30
2023-03-20T21:12:55.980Z,4.18
2023-03-20T21:15:27.822Z,4.75
2023-03-20T21:18:01.377Z,3.92
2023-03-20T21:20:33.587Z,3.95
2023-03-20T21:23:03.765Z,3.70
2023-03-20T21:25:46.345Z,3.58
2023-03-20T21:28:18.985Z,3.85
2023-03-20T21:31:12.401Z,4.20
2023-03-20T21:33:39.213Z,4.40
2023-03-20T21:36:10.730Z,4.43
2023-03-20T21:39:06.779Z,4.00
2023-03-20T21:41:29.222Z,3.65
2023-03-20T21:44:01.244Z,4.00
2023-03-20T21:53:10.523Z,3.90
2023-03-20T22:04:19.120Z,4.72
2023-03-20T22:07:23.905Z,4.25
2023-03-20T22:13:01.391Z,4.28
2023-03-20T22:15:34.082Z,4.15
2023-03-20T22:21:36.518Z,4.47
2023-03-20T22:24:14.852Z,4.35
2023-03-20T22:30:02.619Z,4.65
2023-03-20T22:32:40.869Z,4.47
2023-03-20T22:38:21.802Z,4.00
2023-03-20T22:41:18.218Z,3.20
2023-03-20T22:46:25.564Z,4.20
2023-03-20T22:48:54.462Z,4.25
2023-03-20T22:51:32.527Z,4.13
2023-03-20T22:54:08.647Z,4.60
2023-03-20T22:59:20.346Z,4.35
2023-03-20T23:04:31.131Z,4.43
2023-03-20T23:07:02.004Z,3.78
2023-03-20T23:09:33.794Z,4.05
2023-03-20T23:12:03.849Z,3.93
2023-03-20T23:14:45.529Z,3.40
2023-03-20T23:17:15.224Z,3.50
2023-03-20T23:20:05.313Z,4.28
2023-03-20T23:22:45.246Z,4.10
2023-03-20T23:25:23.596Z,3.88
2023-03-20T23:27:56.240Z,4.22
2023-03-20T23:30:43.518Z,4.07
2023-03-20T23:33:13.067Z,4.03
2023-03-20T23:35:40.761Z,3.95
2023-03-20T23:38:08.291Z,4.60
2023-03-20T23:40:36.313Z,4.13
2023-03-20T23:43:04.306Z,3.95
2023-03-20T23:45:31.892Z,3.92
2023-03-20T23:47:59.458Z,4.45
2023-03-20T23:50:36.904Z,4.45
2023-03-20T23:53:20.037Z,4.72
2023-03-20T23:55:50.115Z,4.18
2023-03-20T23:58:17.842Z,3.70
